createdAt,value
2017-09-18T00:01:10.323Z,68.40
2017-09-18T00:03:38.823Z,68.30
2017-09-18T00:06:06.795Z,68.20
2017-09-18T00:08:34.447Z,68.00
2017-09-18T00:11:02.107Z,68.00
2017-09-18T00:13:29.603Z,68.00
2017-09-18T00:15:57.100Z,67.90
2017-09-18T00:18:25.495Z,68.60
2017-09-18T00:20:53.065Z,68.10
2017-09-18T00:23:20.564Z,68.00
2017-09-18T00:25:48.075Z,68.10
2017-09-18T00:28:15.968Z,67.90
2017-09-18T00:30:43.462Z,67.90
2017-09-18T00:33:12.676Z,67.90
2017-09-18T00:35:40.330Z,68.00
2017-09-18T00:38:08.616Z,67.90
2017-09-18T00:40:36.262Z,67.90
2017-09-18T00:43:03.923Z,67.90
2017-09-18T00:45:31.436Z,67.90
2017-09-18T00:47:58.942Z,67.90
2017-09-18T00:50:26.451Z,68.00
2017-09-18T00:52:53.947Z,67.90
2017-09-18T00:57:50.311Z,68.00
2017-09-18T01:00:17.887Z,68.00
2017-09-18T01:02:45.384Z,67.90
2017-09-18T01:07:42.760Z,68.60
2017-09-18T01:10:10.827Z,68.00
2017-09-18T01:12:38.319Z,68.00
2017-09-18T01:15:06.967Z,68.10
2017-09-18T01:17:34.459Z,68.00
2017-09-18T01:20:02.074Z,68.10
2017-09-18T01:22:31.077Z,68.20
2017-09-18T01:24:59.439Z,68.20
2017-09-18T01:27:26.935Z,68.30
2017-09-18T01:29:54.559Z,68.40
2017-09-18T01:32:22.163Z,68.40
2017-09-18T01:34:49.671Z,68.40
2017-09-18T01:37:17.323Z,68.60
2017-09-18T01:39:45.006Z,68.60
2017-09-18T01:42:12.647Z,68.80
2017-09-18T01:44:40.159Z,69.00
2017-09-18T01:47:08.503Z,69.10
2017-09-18T01:49:36.759Z,69.20
2017-09-18T01:52:05.527Z,69.80
2017-09-18T01:54:33.023Z,69.50
2017-09-18T01:57:01.278Z,69.50
2017-09-18T01:59:28.779Z,69.50
2017-09-18T02:01:57.416Z,69.40
2017-09-18T02:04:24.931Z,69.50
2017-09-18T02:06:53.948Z,69.60
2017-09-18T02:09:21.538Z,69.60
2017-09-18T02:11:49.035Z,69.60
2017-09-18T02:14:16.539Z,69.50
2017-09-18T02:16:44.160Z,69.70
2017-09-18T02:19:11.825Z,69.70
2017-09-18T02:21:39.431Z,69.60
2017-09-18T02:24:07.119Z,69.50
2017-09-18T02:26:34.798Z,69.60
2017-09-18T02:29:02.291Z,69.50
2017-09-18T02:31:30.663Z,69.60
2017-09-18T02:33:58.184Z,69.50
2017-09-18T02:36:25.704Z,69.60
2017-09-18T02:38:53.209Z,69.70
2017-09-18T02:41:20.747Z,69.70
2017-09-18T02:43:48.289Z,69.80
2017-09-18T02:46:16.272Z,69.80
2017-09-18T02:48:43.879Z,69.70
2017-09-18T02:51:11.583Z,69.70
2017-09-18T02:53:39.080Z,69.80
2017-09-18T02:56:10.460Z,69.80
2017-09-18T02:58:38.720Z,70.60
2017-09-18T03:01:06.320Z,70.10
2017-09-18T03:03:33.988Z,70.40
2017-09-18T03:06:01.484Z,70.50
2017-09-18T03:08:28.997Z,70.50
2017-09-18T03:10:57.255Z,70.50
2017-09-18T03:13:24.751Z,70.50
2017-09-18T03:15:52.276Z,70.50
2017-09-18T03:18:19.927Z,70.40
2017-09-18T03:20:48.203Z,70.20
2017-09-18T03:23:15.857Z,70.20
2017-09-18T03:25:43.483Z,70.30
2017-09-18T03:28:10.978Z,70.60
2017-09-18T03:30:40.060Z,70.50
2017-09-18T03:33:07.737Z,70.60
2017-09-18T03:35:35.399Z,70.40
2017-09-18T03:38:03.451Z,70.40
2017-09-18T03:40:30.948Z,70.60
2017-09-18T03:42:59.967Z,71.80
2017-09-18T03:45:28.232Z,71.30
2017-09-18T03:47:56.639Z,71.30
2017-09-18T03:50:24.308Z,70.70
2017-09-18T03:52:51.806Z,70.70
2017-09-18T03:55:19.303Z,70.70
2017-09-18T03:57:46.804Z,70.70
2017-09-18T04:00:14.299Z,70.70
2017-09-18T04:02:41.799Z,70.60
2017-09-18T04:05:09.296Z,70.60
2017-09-18T04:07:37.557Z,70.60
2017-09-18T04:10:05.052Z,70.70
2017-09-18T04:15:01.660Z,70.70
2017-09-18T04:17:29.158Z,70.70
2017-09-18T04:19:56.830Z,70.70
2017-09-18T04:22:25.827Z,70.60
2017-09-18T04:24:54.563Z,71.10
2017-09-18T04:29:50.906Z,70.40
2017-09-18T04:34:48.097Z,70.30
2017-09-18T04:37:15.751Z,70.20
2017-09-18T04:39:43.243Z,70.20
2017-09-18T04:42:10.739Z,70.30
2017-09-18T04:44:38.723Z,70.20
2017-09-18T04:47:06.394Z,70.00
2017-09-18T04:49:34.063Z,69.90
2017-09-18T04:52:02.333Z,70.00
2017-09-18T04:54:29.826Z,70.10
2017-09-18T04:56:57.347Z,70.10
2017-09-18T04:59:24.848Z,70.10
2017-09-18T05:01:52.363Z,70.20
2017-09-18T05:04:19.871Z,70.20
2017-09-18T05:06:48.537Z,70.30
2017-09-18T05:09:16.131Z,70.30
2017-09-18T05:11:44.404Z,70.30
2017-09-18T05:14:11.903Z,70.40
2017-09-18T05:16:40.908Z,70.60
2017-09-18T05:19:10.039Z,71.20
2017-09-18T05:21:38.116Z,70.70
2017-09-18T05:24:05.619Z,70.60
2017-09-18T05:26:33.511Z,70.40
2017-09-18T05:29:01.791Z,71.20
2017-09-18T05:31:30.426Z,70.70
2017-09-18T05:33:57.960Z,70.80
2017-09-18T05:38:54.336Z,70.60
2017-09-18T05:41:22.238Z,70.70
2017-09-18T05:43:50.124Z,70.60
2017-09-18T05:46:17.640Z,70.80
2017-09-18T05:48:46.039Z,71.40
2017-09-18T05:51:13.779Z,71.00
2017-09-18T05:53:42.040Z,71.30
2017-09-18T05:56:09.632Z,70.60
2017-09-18T05:58:37.887Z,70.40
2017-09-18T06:01:05.560Z,70.70
2017-09-18T06:03:33.056Z,70.80
2017-09-18T06:06:00.675Z,70.80
2017-09-18T06:08:28.342Z,71.00
2017-09-18T06:10:55.943Z,71.10
2017-09-18T06:13:24.967Z,71.80
2017-09-18T06:15:53.231Z,71.60
2017-09-18T06:18:21.887Z,70.90
2017-09-18T06:20:49.492Z,70.60
2017-09-18T06:23:17.768Z,70.90
2017-09-18T06:25:45.283Z,70.60
2017-09-18T06:28:13.183Z,70.60
2017-09-18T06:30:40.682Z,70.90
2017-09-18T06:33:08.211Z,70.50
2017-09-18T06:35:35.712Z,70.40
2017-09-18T06:38:03.255Z,70.50
2017-09-18T06:40:30.748Z,70.50
2017-09-18T06:42:58.264Z,70.30
2017-09-18T06:45:26.895Z,70.20
2017-09-18T06:47:54.551Z,70.10
2017-09-18T06:50:22.453Z,70.10
2017-09-18T06:52:49.951Z,69.80
2017-09-18T06:55:17.643Z,70.10
2017-09-18T06:57:45.144Z,70.30
2017-09-18T07:00:12.635Z,70.00
2017-09-18T07:02:40.131Z,70.70
2017-09-18T07:05:07.623Z,70.80
2017-09-18T07:07:35.732Z,70.30
2017-09-18T07:10:04.029Z,70.20
2017-09-18T07:12:31.926Z,69.90
2017-09-18T07:15:00.339Z,70.50
2017-09-18T07:17:28.255Z,69.80
2017-09-18T07:19:55.859Z,69.70
2017-09-18T07:22:23.368Z,69.90
2017-09-18T07:24:52.208Z,69.90
2017-09-18T07:27:19.860Z,70.00
2017-09-18T07:29:47.359Z,69.90
2017-09-18T07:32:14.971Z,70.10
2017-09-18T07:37:11.517Z,70.20
2017-09-18T07:39:39.171Z,70.10
2017-09-18T07:42:06.831Z,70.10
2017-09-18T07:44:34.443Z,70.10
2017-09-18T07:47:01.968Z,69.80
2017-09-18T07:49:30.419Z,70.00
2017-09-18T07:51:58.079Z,70.10
2017-09-18T07:54:26.355Z,70.40
2017-09-18T07:56:54.611Z,70.70
2017-09-18T07:59:22.909Z,70.70
2017-09-18T08:01:50.572Z,69.70
2017-09-18T08:04:18.066Z,68.70
2017-09-18T08:06:45.555Z,69.10
2017-09-18T08:09:13.815Z,69.70
2017-09-18T08:11:42.211Z,69.60
2017-09-18T08:14:09.723Z,67.90
2017-09-18T08:16:37.326Z,68.00
2017-09-18T08:19:05.406Z,67.80
2017-09-18T08:21:32.909Z,67.60
2017-09-18T08:24:00.512Z,67.50
2017-09-18T08:26:28.581Z,66.90
2017-09-18T08:28:56.083Z,67.00
2017-09-18T08:31:24.715Z,66.80
2017-09-18T08:33:52.381Z,66.70
2017-09-18T08:36:21.010Z,66.80
2017-09-18T08:38:48.521Z,66.80
2017-09-18T08:41:16.987Z,66.90
2017-09-18T08:43:44.876Z,66.50
2017-09-18T08:46:12.510Z,66.10
2017-09-18T08:48:40.162Z,66.50
2017-09-18T08:51:07.683Z,65.80
2017-09-18T08:53:35.947Z,66.30
2017-09-18T08:56:03.450Z,66.30
2017-09-18T08:58:30.956Z,67.10
2017-09-18T09:00:58.667Z,67.80
2017-09-18T09:03:26.571Z,68.10
2017-09-18T09:05:54.839Z,68.50
2017-09-18T09:08:23.284Z,69.30
2017-09-18T09:10:50.790Z,69.80
2017-09-18T09:13:19.428Z,70.20
2017-09-18T09:15:46.923Z,70.50
2017-09-18T09:18:14.437Z,71.20
2017-09-18T09:20:43.208Z,71.40
2017-09-18T09:23:10.868Z,71.50
2017-09-18T09:25:38.410Z,72.10
2017-09-18T09:28:06.679Z,72.50
2017-09-18T09:30:34.943Z,72.80
2017-09-18T09:33:03.203Z,70.30
2017-09-18T09:35:30.695Z,69.80
2017-09-18T09:37:58.251Z,69.30
2017-09-18T09:42:55.359Z,70.00
2017-09-18T09:45:24.517Z,69.90
2017-09-18T09:47:52.180Z,69.30
2017-09-18T09:50:19.703Z,69.60
2017-09-18T09:52:47.971Z,70.00
2017-09-18T09:55:16.259Z,70.00
2017-09-18T09:57:43.753Z,69.30
2017-09-18T10:00:11.490Z,69.20
2017-09-18T10:02:40.512Z,68.50
2017-09-18T10:05:08.237Z,66.50
2017-09-18T10:07:35.894Z,66.10
2017-09-18T10:10:03.400Z,66.00
2017-09-18T10:12:30.895Z,64.70
2017-09-18T10:14:58.863Z,64.30
2017-09-18T10:17:26.371Z,64.30
2017-09-18T10:19:53.864Z,64.40
2017-09-18T10:22:21.365Z,64.70
2017-09-18T10:24:49.256Z,64.30
2017-09-18T10:27:16.783Z,65.00
2017-09-18T10:29:44.675Z,65.00
2017-09-18T10:34:41.155Z,64.90
2017-09-18T10:39:37.704Z,65.00
2017-09-18T10:42:05.203Z,64.30
2017-09-18T10:44:33.467Z,64.40
2017-09-18T10:47:00.968Z,62.80
2017-09-18T10:49:29.227Z,63.40
2017-09-18T10:51:58.231Z,63.10
2017-09-18T10:54:25.752Z,62.70
2017-09-18T10:56:53.359Z,62.20
2017-09-18T10:59:21.015Z,62.90
2017-09-18T11:01:48.512Z,63.20
2017-09-18T11:04:16.132Z,62.80
2017-09-18T11:06:43.645Z,63.30
2017-09-18T11:09:11.904Z,63.70
2017-09-18T11:11:39.526Z,62.90
2017-09-18T11:14:07.844Z,63.30
2017-09-18T11:16:35.463Z,63.50
2017-09-18T11:19:03.120Z,63.80
2017-09-18T11:21:30.778Z,63.50
2017-09-18T11:23:59.045Z,63.40
2017-09-18T11:26:26.579Z,63.10
2017-09-18T11:28:55.207Z,62.80
2017-09-18T11:31:22.723Z,62.50
2017-09-18T11:33:50.296Z,62.10
2017-09-18T11:36:18.573Z,61.10
2017-09-18T11:38:46.191Z,61.50
2017-09-18T11:41:14.086Z,61.90
2017-09-18T11:43:41.593Z,61.50
2017-09-18T11:48:38.335Z,61.40
2017-09-18T11:51:05.827Z,61.30
2017-09-18T11:53:34.103Z,62.00
2017-09-18T11:56:02.490Z,62.60
2017-09-18T11:58:30.011Z,61.30
2017-09-18T12:00:58.272Z,61.70
2017-09-18T12:03:25.879Z,60.90
2017-09-18T12:05:53.943Z,60.70
2017-09-18T12:08:21.603Z,60.50
2017-09-18T12:10:49.859Z,60.60
2017-09-18T12:13:17.531Z,60.70
2017-09-18T12:15:45.191Z,60.90
2017-09-18T12:18:12.695Z,60.60
2017-09-18T12:20:40.188Z,60.70
2017-09-18T12:23:09.196Z,61.00
2017-09-18T12:25:36.847Z,60.70
2017-09-18T12:28:04.523Z,61.20
2017-09-18T12:30:32.050Z,61.60
2017-09-18T12:33:00.326Z,61.30
2017-09-18T12:35:28.615Z,61.00
2017-09-18T12:37:56.128Z,60.80
2017-09-18T12:40:24.063Z,60.50
2017-09-18T12:42:51.967Z,59.80
2017-09-18T12:45:20.366Z,61.20
2017-09-18T12:47:47.867Z,60.10
2017-09-18T12:50:15.363Z,60.10
2017-09-18T12:52:43.632Z,61.00
2017-09-18T12:55:12.027Z,61.20
2017-09-18T13:00:08.807Z,60.50
2017-09-18T13:02:37.088Z,60.00
2017-09-18T13:05:04.604Z,59.40
2017-09-18T13:07:32.143Z,59.20
2017-09-18T13:09:59.655Z,58.90
2017-09-18T13:12:27.155Z,58.80
2017-09-18T13:14:56.168Z,59.40
2017-09-18T13:17:24.059Z,59.50
2017-09-18T13:19:51.567Z,59.30
2017-09-18T13:22:20.199Z,59.10
2017-09-18T13:24:47.820Z,59.60
2017-09-18T13:27:15.330Z,59.70
2017-09-18T13:29:42.939Z,59.60
2017-09-18T13:32:10.450Z,59.40
2017-09-18T13:34:37.943Z,59.60
2017-09-18T13:37:05.474Z,59.50
2017-09-18T13:39:33.779Z,59.70
2017-09-18T13:42:01.275Z,59.70
2017-09-18T13:44:28.771Z,59.70
2017-09-18T13:46:57.165Z,60.60
2017-09-18T13:49:24.816Z,60.00
2017-09-18T13:54:21.547Z,59.40
2017-09-18T13:56:49.446Z,58.50
2017-09-18T13:59:16.951Z,58.90
2017-09-18T14:01:45.368Z,59.10
2017-09-18T14:04:13.022Z,59.60
2017-09-18T14:06:40.911Z,59.60
2017-09-18T14:09:08.458Z,59.30
2017-09-18T14:11:37.644Z,59.30
2017-09-18T14:14:05.163Z,59.10
2017-09-18T14:16:33.511Z,59.50
2017-09-18T14:19:01.029Z,59.40
2017-09-18T14:21:28.523Z,59.40
2017-09-18T14:23:56.060Z,59.60
2017-09-18T14:26:23.568Z,59.50
2017-09-18T14:28:51.098Z,58.60
2017-09-18T14:31:19.120Z,58.80
2017-09-18T14:33:46.783Z,58.40
2017-09-18T14:36:14.284Z,58.70
2017-09-18T14:38:41.804Z,59.00
2017-09-18T14:41:09.299Z,58.10
2017-09-18T14:43:36.819Z,58.40
2017-09-18T14:46:04.324Z,58.40
2017-09-18T14:51:01.483Z,59.10
2017-09-18T14:53:29.895Z,57.90
2017-09-18T14:55:57.387Z,57.90
2017-09-18T14:58:24.882Z,58.40
2017-09-18T15:00:52.404Z,58.60
2017-09-18T15:03:21.423Z,59.10
2017-09-18T15:05:49.403Z,58.50
2017-09-18T15:08:18.428Z,58.30
2017-09-18T15:10:45.935Z,58.50
2017-09-18T15:13:13.453Z,58.60
2017-09-18T15:15:40.951Z,59.00
2017-09-18T15:18:08.844Z,59.40
2017-09-18T15:20:37.479Z,59.50
2017-09-18T15:23:05.383Z,59.00
2017-09-18T15:25:33.671Z,58.70
2017-09-18T15:28:01.193Z,59.00
2017-09-18T15:30:28.855Z,58.80
2017-09-18T15:32:56.351Z,59.50
2017-09-18T15:35:23.843Z,59.80
2017-09-18T15:37:52.118Z,60.70
2017-09-18T15:40:20.521Z,60.00
2017-09-18T15:42:48.593Z,60.10
2017-09-18T15:45:16.096Z,60.00
2017-09-18T15:47:43.591Z,59.90
2017-09-18T15:50:11.087Z,60.30
2017-09-18T15:52:38.591Z,60.00
2017-09-18T15:55:06.867Z,59.50
2017-09-18T15:57:34.396Z,59.30
2017-09-18T16:00:02.003Z,59.50
2017-09-18T16:02:29.509Z,60.00
2017-09-18T16:04:57.004Z,59.90
2017-09-18T16:07:25.636Z,60.20
2017-09-18T16:09:53.531Z,60.30
2017-09-18T16:12:21.024Z,60.40
2017-09-18T16:14:48.916Z,59.80
2017-09-18T16:17:18.051Z,60.90
2017-09-18T16:19:45.547Z,60.30
2017-09-18T16:22:13.044Z,60.40
2017-09-18T16:24:41.848Z,60.40
2017-09-18T16:27:09.767Z,60.60
2017-09-18T16:29:37.287Z,60.70
2017-09-18T16:32:04.779Z,60.60
2017-09-18T16:34:32.327Z,60.50
2017-09-18T16:37:00.376Z,60.40
2017-09-18T16:39:28.239Z,60.30
2017-09-18T16:41:55.731Z,60.60
2017-09-18T16:44:23.323Z,60.50
2017-09-18T16:46:50.815Z,60.50
2017-09-18T16:51:47.171Z,60.70
2017-09-18T16:54:14.772Z,60.60
2017-09-18T16:56:42.283Z,60.50
2017-09-18T16:59:09.798Z,60.40
2017-09-18T17:01:37.335Z,60.60
2017-09-18T17:04:04.999Z,60.70
2017-09-18T17:06:32.510Z,60.80
2017-09-18T17:09:00.018Z,60.80
2017-09-18T17:11:27.546Z,60.80
2017-09-18T17:13:55.047Z,60.80
2017-09-18T17:16:22.686Z,60.80
2017-09-18T17:18:50.352Z,60.70
2017-09-18T17:21:18.019Z,60.80
2017-09-18T17:23:45.532Z,60.80
2017-09-18T17:26:13.426Z,60.70
2017-09-18T17:28:40.971Z,60.80
2017-09-18T17:33:37.479Z,60.40
2017-09-18T17:36:05.792Z,60.60
2017-09-18T17:38:33.291Z,60.90
2017-09-18T17:41:00.815Z,61.10
2017-09-18T17:43:29.095Z,61.20
2017-09-18T17:45:57.355Z,61.20
2017-09-18T17:48:24.901Z,61.00
2017-09-18T17:50:52.555Z,61.10
2017-09-18T17:53:20.218Z,61.40
2017-09-18T17:55:47.715Z,61.50
2017-09-18T17:58:15.208Z,61.60
2017-09-18T18:00:43.100Z,61.40
2017-09-18T18:03:11.367Z,61.80
2017-09-18T18:05:38.874Z,62.00
2017-09-18T18:08:06.387Z,62.30
2017-09-18T18:10:34.034Z,62.40
2017-09-18T18:13:01.537Z,62.60
2017-09-18T18:15:29.839Z,62.60
2017-09-18T18:17:58.247Z,63.30
2017-09-18T18:20:25.772Z,62.60
2017-09-18T18:22:54.171Z,63.30
2017-09-18T18:25:21.671Z,62.60
2017-09-18T18:27:49.289Z,62.70
2017-09-18T18:30:17.187Z,62.80
2017-09-18T18:32:44.681Z,62.90
2017-09-18T18:35:13.895Z,62.90
2017-09-18T18:37:41.573Z,62.90
2017-09-18T18:40:09.853Z,62.90
2017-09-18T18:42:37.776Z,62.70
2017-09-18T18:45:06.168Z,62.60
2017-09-18T18:47:33.803Z,62.80
2017-09-18T18:50:01.496Z,62.70
2017-09-18T18:52:28.995Z,62.80
2017-09-18T18:59:56.033Z,62.70
2017-09-18T19:02:24.310Z,62.70
2017-09-18T19:04:51.807Z,63.00
2017-09-18T19:07:20.087Z,63.10
2017-09-18T19:09:48.484Z,63.90
2017-09-18T19:12:15.983Z,63.60
2017-09-18T19:14:43.915Z,63.60
2017-09-18T19:17:12.196Z,63.70
2017-09-18T19:19:40.551Z,63.90
2017-09-18T19:22:08.047Z,64.00
2017-09-18T19:24:36.483Z,63.90
2017-09-18T19:27:04.159Z,64.00
2017-09-18T19:29:31.804Z,64.10
2017-09-18T19:31:59.323Z,64.30
2017-09-18T19:34:26.929Z,64.30
2017-09-18T19:36:54.571Z,64.20
2017-09-18T19:39:22.071Z,64.30
2017-09-18T19:41:49.602Z,64.60
2017-09-18T19:44:17.535Z,65.00
2017-09-18T19:46:45.818Z,65.00
2017-09-18T19:49:13.479Z,65.10
2017-09-18T19:51:42.123Z,64.80
2017-09-18T19:54:10.757Z,64.60
2017-09-18T19:56:38.301Z,64.70
2017-09-18T19:59:05.940Z,64.90
2017-09-18T20:01:33.532Z,65.00
2017-09-18T20:04:01.091Z,65.00
2017-09-18T20:08:57.468Z,64.90
2017-09-18T20:11:24.963Z,65.00
2017-09-18T20:13:52.523Z,65.10
2017-09-18T20:16:20.024Z,65.20
2017-09-18T20:18:47.643Z,65.10
2017-09-18T20:21:15.174Z,65.20
2017-09-18T20:23:42.775Z,65.30
2017-09-18T20:26:11.080Z,65.20
2017-09-18T20:28:38.608Z,65.20
2017-09-18T20:33:36.486Z,65.10
2017-09-18T20:36:04.011Z,65.20
2017-09-18T20:38:31.560Z,65.30
2017-09-18T20:40:59.090Z,65.30
2017-09-18T20:43:27.347Z,66.00
2017-09-18T20:45:54.847Z,65.50
2017-09-18T20:48:22.348Z,65.50
2017-09-18T20:50:49.847Z,65.40
2017-09-18T20:53:17.515Z,65.40
2017-09-18T20:55:45.805Z,65.50
2017-09-18T20:58:13.303Z,65.60
2017-09-18T21:00:40.799Z,65.70
2017-09-18T21:03:09.097Z,65.30
2017-09-18T21:05:36.596Z,65.40
2017-09-18T21:08:04.100Z,65.70
2017-09-18T21:10:31.765Z,65.70
2017-09-18T21:12:59.655Z,65.70
2017-09-18T21:17:56.723Z,66.00
2017-09-18T21:20:24.229Z,65.80
2017-09-18T21:22:51.751Z,66.10
2017-09-18T21:25:20.170Z,66.70
2017-09-18T21:27:48.095Z,66.20
2017-09-18T21:30:16.735Z,66.30
2017-09-18T21:32:44.260Z,66.60
2017-09-18T21:35:12.614Z,66.70
2017-09-18T21:37:40.523Z,66.90
2017-09-18T21:40:08.171Z,67.00
2017-09-18T21:42:35.699Z,67.10
2017-09-18T21:45:03.195Z,67.40
2017-09-18T21:47:30.719Z,67.50
2017-09-18T21:49:58.331Z,67.70
2017-09-18T21:52:26.036Z,67.50
2017-09-18T21:54:53.531Z,67.70
2017-09-18T21:57:21.977Z,67.70
2017-09-18T21:59:50.976Z,67.90
2017-09-18T22:02:18.499Z,68.00
2017-09-18T22:04:46.389Z,67.70
2017-09-18T22:07:13.918Z,67.90
2017-09-18T22:09:42.715Z,68.00
2017-09-18T22:12:10.639Z,67.90
2017-09-18T22:14:39.072Z,67.70
2017-09-18T22:17:06.594Z,67.90
2017-09-18T22:19:35.410Z,68.10
2017-09-18T22:22:02.937Z,68.20
2017-09-18T22:24:30.427Z,68.40
2017-09-18T22:26:58.704Z,68.20
2017-09-18T22:29:26.648Z,67.90
2017-09-18T22:31:54.299Z,67.90
2017-09-18T22:34:21.795Z,68.10
2017-09-18T22:36:49.415Z,68.30
2017-09-18T22:39:16.916Z,68.30
2017-09-18T22:41:44.407Z,68.30
2017-09-18T22:44:12.683Z,68.80
2017-09-18T22:46:40.576Z,68.20
2017-09-18T22:49:08.079Z,68.10
2017-09-18T22:51:37.212Z,67.90
2017-09-18T22:54:04.725Z,67.80
2017-09-18T22:56:33.552Z,67.90
2017-09-18T22:59:01.111Z,67.90
2017-09-18T23:01:29.756Z,67.70
2017-09-18T23:03:58.028Z,67.60
2017-09-18T23:06:26.042Z,67.50
2017-09-18T23:08:53.531Z,67.70
2017-09-18T23:11:21.027Z,67.70
2017-09-18T23:13:49.671Z,67.80
2017-09-18T23:16:17.169Z,67.80
2017-09-18T23:18:44.727Z,67.90
2017-09-18T23:21:12.226Z,67.70
2017-09-18T23:23:39.741Z,67.30
2017-09-18T23:26:07.239Z,67.30
2017-09-18T23:28:35.169Z,67.40
2017-09-18T23:31:03.444Z,67.60
2017-09-18T23:33:31.036Z,67.70
2017-09-18T23:36:00.079Z,67.80
2017-09-18T23:38:28.729Z,67.60
2017-09-18T23:40:56.225Z,67.60
2017-09-18T23:43:24.180Z,67.70
2017-09-18T23:45:51.679Z,67.90
2017-09-18T23:48:19.295Z,67.90
2017-09-18T23:50:46.799Z,67.90
2017-09-18T23:53:14.417Z,67.90
2017-09-18T23:55:42.898Z,67.70
2017-09-18T23:58:10.431Z,67.80
